sensor_id;sensor_type;location;lat;lon;timestamp;P1;durP1;ratioP1;P2;durP2;ratioP2
40955;SDS011;26687;48.254;11.454;2024-01-16T00:00:27;2.25;;;1.48;;
40955;SDS011;26687;48.254;11.454;2024-01-16T00:03:27;3.20;;;1.53;;
40955;SDS011;26687;48.254;11.454;2024-01-16T00:06:27;2.00;;;1.42;;
40955;SDS011;26687;48.254;11.454;2024-01-16T00:09:28;1.50;;;1.40;;
40955;SDS011;26687;48.254;11.454;2024-01-16T00:12:28;3.30;;;1.50;;
40955;SDS011;26687;48.254;11.454;2024-01-16T00:15:28;1.90;;;1.50;;
40955;SDS011;26687;48.254;11.454;2024-01-16T00:18:28;2.40;;;1.80;;
40955;SDS011;26687;48.254;11.454;2024-01-16T00:21:28;1.65;;;1.50;;
40955;SDS011;26687;48.254;11.454;2024-01-16T00:24:28;2.63;;;1.42;;
40955;SDS011;26687;48.254;11.454;2024-01-16T00:27:28;1.73;;;1.33;;
40955;SDS011;26687;48.254;11.454;2024-01-16T00:30:29;2.10;;;1.40;;
40955;SDS011;26687;48.254;11.454;2024-01-16T00:33:29;2.10;;;1.67;;
40955;SDS011;26687;48.254;11.454;2024-01-16T00:36:29;2.00;;;1.80;;
40955;SDS011;26687;48.254;11.454;2024-01-16T00:39:30;1.75;;;1.48;;
40955;SDS011;26687;48.254;11.454;2024-01-16T00:42:31;1.92;;;1.70;;
40955;SDS011;26687;48.254;11.454;2024-01-16T00:45:31;2.63;;;1.63;;
40955;SDS011;26687;48.254;11.454;2024-01-16T00:48:31;2.10;;;1.90;;
40955;SDS011;26687;48.254;11.454;2024-01-16T00:51:32;2.15;;;1.85;;
40955;SDS011;26687;48.254;11.454;2024-01-16T00:54:32;2.05;;;1.70;;
40955;SDS011;26687;48.254;11.454;2024-01-16T00:57:32;2.13;;;1.90;;
40955;SDS011;26687;48.254;11.454;2024-01-16T01:00:33;2.37;;;1.90;;
40955;SDS011;26687;48.254;11.454;2024-01-16T01:03:35;2.08;;;1.67;;
40955;SDS011;26687;48.254;11.454;2024-01-16T01:06:35;2.63;;;1.75;;
40955;SDS011;26687;48.254;11.454;2024-01-16T01:09:35;2.58;;;1.92;;
40955;SDS011;26687;48.254;11.454;2024-01-16T01:12:35;1.88;;;1.65;;
40955;SDS011;26687;48.254;11.454;2024-01-16T01:15:35;2.42;;;1.90;;
40955;SDS011;26687;48.254;11.454;2024-01-16T01:18:35;3.83;;;1.80;;
40955;SDS011;26687;48.254;11.454;2024-01-16T01:21:36;2.27;;;1.70;;
40955;SDS011;26687;48.254;11.454;2024-01-16T01:24:36;2.03;;;1.65;;
40955;SDS011;26687;48.254;11.454;2024-01-16T01:27:36;2.47;;;1.70;;
40955;SDS011;26687;48.254;11.454;2024-01-16T01:30:36;2.13;;;1.90;;
40955;SDS011;26687;48.254;11.454;2024-01-16T01:33:37;2.35;;;1.80;;
40955;SDS011;26687;48.254;11.454;2024-01-16T01:36:37;2.38;;;1.63;;
40955;SDS011;26687;48.254;11.454;2024-01-16T01:39:37;2.30;;;1.67;;
40955;SDS011;26687;48.254;11.454;2024-01-16T01:42:37;3.20;;;1.80;;
40955;SDS011;26687;48.254;11.454;2024-01-16T01:45:37;2.20;;;1.95;;
40955;SDS011;26687;48.254;11.454;2024-01-16T01:48:40;1.75;;;1.35;;
40955;SDS011;26687;48.254;11.454;2024-01-16T01:51:40;1.88;;;1.60;;
40955;SDS011;26687;48.254;11.454;2024-01-16T01:54:41;2.47;;;1.73;;
40955;SDS011;26687;48.254;11.454;2024-01-16T01:57:41;2.20;;;1.58;;
40955;SDS011;26687;48.254;11.454;2024-01-16T02:00:42;2.50;;;1.70;;
40955;SDS011;26687;48.254;11.454;2024-01-16T02:03:44;1.58;;;1.48;;
40955;SDS011;26687;48.254;11.454;2024-01-16T02:06:44;2.60;;;1.80;;
40955;SDS011;26687;48.254;11.454;2024-01-16T02:09:44;2.15;;;1.80;;
40955;SDS011;26687;48.254;11.454;2024-01-16T02:12:44;2.03;;;1.70;;
40955;SDS011;26687;48.254;11.454;2024-01-16T02:15:45;3.38;;;1.90;;
40955;SDS011;26687;48.254;11.454;2024-01-16T02:18:45;2.53;;;1.75;;
40955;SDS011;26687;48.254;11.454;2024-01-16T02:21:49;1.50;;;1.40;;
40955;SDS011;26687;48.254;11.454;2024-01-16T02:24:49;3.05;;;1.75;;
40955;SDS011;26687;48.254;11.454;2024-01-16T02:27:49;1.88;;;1.58;;
40955;SDS011;26687;48.254;11.454;2024-01-16T02:30:49;1.70;;;1.60;;
40955;SDS011;26687;48.254;11.454;2024-01-16T02:33:50;1.95;;;1.75;;
40955;SDS011;26687;48.254;11.454;2024-01-16T02:36:50;2.22;;;1.83;;
40955;SDS011;26687;48.254;11.454;2024-01-16T02:39:51;2.25;;;1.65;;
40955;SDS011;26687;48.254;11.454;2024-01-16T02:42:51;3.50;;;1.67;;
40955;SDS011;26687;48.254;11.454;2024-01-16T02:45:51;2.10;;;1.80;;
40955;SDS011;26687;48.254;11.454;2024-01-16T02:48:52;1.80;;;1.40;;
40955;SDS011;26687;48.254;11.454;2024-01-16T02:51:52;1.92;;;1.70;;
40955;SDS011;26687;48.254;11.454;2024-01-16T02:54:52;2.50;;;1.50;;
40955;SDS011;26687;48.254;11.454;2024-01-16T02:57:52;2.10;;;1.40;;
40955;SDS011;26687;48.254;11.454;2024-01-16T03:00:53;2.73;;;1.70;;
40955;SDS011;26687;48.254;11.454;2024-01-16T03:03:53;1.67;;;1.50;;
40955;SDS011;26687;48.254;11.454;2024-01-16T03:06:53;2.60;;;1.67;;
40955;SDS011;26687;48.254;11.454;2024-01-16T03:09:53;2.88;;;1.60;;
40955;SDS011;26687;48.254;11.454;2024-01-16T03:12:54;2.30;;;1.48;;
40955;SDS011;26687;48.254;11.454;2024-01-16T03:15:54;1.77;;;1.23;;
40955;SDS011;26687;48.254;11.454;2024-01-16T03:18:54;1.87;;;1.17;;
40955;SDS011;26687;48.254;11.454;2024-01-16T03:21:54;1.65;;;1.48;;
40955;SDS011;26687;48.254;11.454;2024-01-16T03:24:54;1.77;;;1.42;;
40955;SDS011;26687;48.254;11.454;2024-01-16T03:27:55;3.03;;;1.80;;
40955;SDS011;26687;48.254;11.454;2024-01-16T03:30:55;1.92;;;1.38;;
40955;SDS011;26687;48.254;11.454;2024-01-16T03:33:55;1.60;;;1.40;;
40955;SDS011;26687;48.254;11.454;2024-01-16T03:36:55;1.80;;;1.63;;
40955;SDS011;26687;48.254;11.454;2024-01-16T03:39:55;1.60;;;1.20;;
40955;SDS011;26687;48.254;11.454;2024-01-16T03:42:56;2.08;;;1.63;;
40955;SDS011;26687;48.254;11.454;2024-01-16T03:45:57;3.73;;;1.50;;
40955;SDS011;26687;48.254;11.454;2024-01-16T03:48:57;3.20;;;1.77;;
40955;SDS011;26687;48.254;11.454;2024-01-16T03:51:58;2.33;;;1.60;;
40955;SDS011;26687;48.254;11.454;2024-01-16T03:54:58;2.15;;;1.60;;
40955;SDS011;26687;48.254;11.454;2024-01-16T03:57:58;3.30;;;1.90;;
40955;SDS011;26687;48.254;11.454;2024-01-16T04:00:58;3.30;;;3.00;;
40955;SDS011;26687;48.254;11.454;2024-01-16T04:03:59;2.87;;;1.70;;
40955;SDS011;26687;48.254;11.454;2024-01-16T04:06:59;2.30;;;1.88;;
40955;SDS011;26687;48.254;11.454;2024-01-16T04:09:59;2.75;;;1.63;;
40955;SDS011;26687;48.254;11.454;2024-01-16T04:13:00;1.92;;;1.52;;
40955;SDS011;26687;48.254;11.454;2024-01-16T04:16:00;2.15;;;1.90;;
40955;SDS011;26687;48.254;11.454;2024-01-16T04:19:00;3.60;;;1.60;;
40955;SDS011;26687;48.254;11.454;2024-01-16T04:22:00;2.15;;;1.80;;
40955;SDS011;26687;48.254;11.454;2024-01-16T04:25:01;2.30;;;1.50;;
40955;SDS011;26687;48.254;11.454;2024-01-16T04:28:01;3.10;;;2.00;;
40955;SDS011;26687;48.254;11.454;2024-01-16T04:31:01;1.63;;;1.50;;
40955;SDS011;26687;48.254;11.454;2024-01-16T04:34:01;2.40;;;1.65;;
40955;SDS011;26687;48.254;11.454;2024-01-16T04:37:02;2.10;;;1.55;;
40955;SDS011;26687;48.254;11.454;2024-01-16T04:40:03;1.83;;;1.52;;
40955;SDS011;26687;48.254;11.454;2024-01-16T04:43:05;3.08;;;1.80;;
40955;SDS011;26687;48.254;11.454;2024-01-16T04:46:05;1.77;;;1.60;;
40955;SDS011;26687;48.254;11.454;2024-01-16T04:49:05;1.85;;;1.70;;
40955;SDS011;26687;48.254;11.454;2024-01-16T04:52:05;3.20;;;1.50;;
40955;SDS011;26687;48.254;11.454;2024-01-16T04:55:06;3.00;;;1.73;;
40955;SDS011;26687;48.254;11.454;2024-01-16T04:58:07;2.67;;;1.77;;
40955;SDS011;26687;48.254;11.454;2024-01-16T05:01:07;2.47;;;2.07;;
40955;SDS011;26687;48.254;11.454;2024-01-16T05:04:08;2.92;;;1.85;;
40955;SDS011;26687;48.254;11.454;2024-01-16T05:07:10;1.95;;;1.75;;
40955;SDS011;26687;48.254;11.454;2024-01-16T05:10:10;3.72;;;1.92;;
40955;SDS011;26687;48.254;11.454;2024-01-16T05:13:12;3.03;;;1.70;;
40955;SDS011;26687;48.254;11.454;2024-01-16T05:16:13;2.17;;;1.67;;
40955;SDS011;26687;48.254;11.454;2024-01-16T05:19:13;2.30;;;1.63;;
40955;SDS011;26687;48.254;11.454;2024-01-16T05:22:13;2.80;;;1.98;;
40955;SDS011;26687;48.254;11.454;2024-01-16T05:25:13;2.78;;;1.75;;
40955;SDS011;26687;48.254;11.454;2024-01-16T05:28:15;2.38;;;1.90;;
40955;SDS011;26687;48.254;11.454;2024-01-16T05:31:15;3.65;;;2.33;;
40955;SDS011;26687;48.254;11.454;2024-01-16T05:34:15;2.83;;;1.77;;
40955;SDS011;26687;48.254;11.454;2024-01-16T05:37:16;3.55;;;2.97;;
40955;SDS011;26687;48.254;11.454;2024-01-16T05:40:16;7.15;;;5.65;;
40955;SDS011;26687;48.254;11.454;2024-01-16T05:43:16;8.57;;;5.00;;
40955;SDS011;26687;48.254;11.454;2024-01-16T05:46:17;15.93;;;8.25;;
40955;SDS011;26687;48.254;11.454;2024-01-16T05:49:18;21.13;;;10.73;;
40955;SDS011;26687;48.254;11.454;2024-01-16T05:52:18;20.50;;;8.93;;
40955;SDS011;26687;48.254;11.454;2024-01-16T05:55:18;22.25;;;10.30;;
40955;SDS011;26687;48.254;11.454;2024-01-16T05:58:18;21.00;;;9.93;;
40955;SDS011;26687;48.254;11.454;2024-01-16T06:01:18;18.33;;;9.03;;
40955;SDS011;26687;48.254;11.454;2024-01-16T06:04:19;16.67;;;8.07;;
40955;SDS011;26687;48.254;11.454;2024-01-16T06:07:19;7.63;;;4.70;;
40955;SDS011;26687;48.254;11.454;2024-01-16T06:10:19;6.50;;;2.80;;
40955;SDS011;26687;48.254;11.454;2024-01-16T06:13:20;3.90;;;2.50;;
40955;SDS011;26687;48.254;11.454;2024-01-16T06:16:21;4.15;;;3.03;;
40955;SDS011;26687;48.254;11.454;2024-01-16T06:19:21;5.90;;;3.37;;
40955;SDS011;26687;48.254;11.454;2024-01-16T06:22:22;17.83;;;11.02;;
40955;SDS011;26687;48.254;11.454;2024-01-16T06:25:22;15.25;;;10.02;;
40955;SDS011;26687;48.254;11.454;2024-01-16T06:28:22;19.30;;;10.55;;
40955;SDS011;26687;48.254;11.454;2024-01-16T06:31:22;15.23;;;10.38;;
40955;SDS011;26687;48.254;11.454;2024-01-16T06:34:25;11.60;;;7.32;;
40955;SDS011;26687;48.254;11.454;2024-01-16T06:37:25;7.57;;;4.00;;
40955;SDS011;26687;48.254;11.454;2024-01-16T06:40:25;5.15;;;2.90;;
40955;SDS011;26687;48.254;11.454;2024-01-16T06:43:26;5.63;;;2.88;;
40955;SDS011;26687;48.254;11.454;2024-01-16T06:46:26;4.53;;;2.60;;
40955;SDS011;26687;48.254;11.454;2024-01-16T06:49:26;5.05;;;2.63;;
40955;SDS011;26687;48.254;11.454;2024-01-16T06:52:27;3.47;;;2.28;;
40955;SDS011;26687;48.254;11.454;2024-01-16T06:55:27;2.97;;;2.40;;
40955;SDS011;26687;48.254;11.454;2024-01-16T06:58:27;3.92;;;2.45;;
40955;SDS011;26687;48.254;11.454;2024-01-16T07:01:27;3.45;;;2.30;;
40955;SDS011;26687;48.254;11.454;2024-01-16T07:04:27;5.47;;;2.67;;
40955;SDS011;26687;48.254;11.454;2024-01-16T07:07:28;2.88;;;2.20;;
40955;SDS011;26687;48.254;11.454;2024-01-16T07:10:28;3.23;;;2.37;;
40955;SDS011;26687;48.254;11.454;2024-01-16T07:13:28;6.00;;;2.45;;
40955;SDS011;26687;48.254;11.454;2024-01-16T07:16:28;3.40;;;2.90;;
40955;SDS011;26687;48.254;11.454;2024-01-16T07:19:28;3.00;;;2.60;;
40955;SDS011;26687;48.254;11.454;2024-01-16T07:22:29;5.07;;;2.80;;
40955;SDS011;26687;48.254;11.454;2024-01-16T07:25:29;3.08;;;2.28;;
40955;SDS011;26687;48.254;11.454;2024-01-16T07:28:29;3.20;;;2.77;;
40955;SDS011;26687;48.254;11.454;2024-01-16T07:31:29;5.75;;;3.00;;
40955;SDS011;26687;48.254;11.454;2024-01-16T07:34:29;5.10;;;2.70;;
40955;SDS011;26687;48.254;11.454;2024-01-16T07:37:29;5.05;;;3.10;;
40955;SDS011;26687;48.254;11.454;2024-01-16T07:40:30;5.40;;;2.70;;
40955;SDS011;26687;48.254;11.454;2024-01-16T07:43:30;3.25;;;2.70;;
40955;SDS011;26687;48.254;11.454;2024-01-16T07:46:30;4.63;;;2.88;;
40955;SDS011;26687;48.254;11.454;2024-01-16T07:49:30;4.78;;;3.60;;
40955;SDS011;26687;48.254;11.454;2024-01-16T07:52:30;6.47;;;3.92;;
40955;SDS011;26687;48.254;11.454;2024-01-16T07:55:31;5.60;;;3.78;;
40955;SDS011;26687;48.254;11.454;2024-01-16T07:58:31;4.60;;;3.83;;
40955;SDS011;26687;48.254;11.454;2024-01-16T08:01:31;4.07;;;3.35;;
40955;SDS011;26687;48.254;11.454;2024-01-16T08:04:32;6.18;;;4.10;;
40955;SDS011;26687;48.254;11.454;2024-01-16T08:07:32;5.00;;;3.30;;
40955;SDS011;26687;48.254;11.454;2024-01-16T08:10:32;4.90;;;3.20;;
40955;SDS011;26687;48.254;11.454;2024-01-16T08:13:33;4.30;;;3.25;;
40955;SDS011;26687;48.254;11.454;2024-01-16T08:16:33;3.63;;;3.00;;
40955;SDS011;26687;48.254;11.454;2024-01-16T08:19:33;5.70;;;3.50;;
40955;SDS011;26687;48.254;11.454;2024-01-16T08:22:33;6.10;;;3.42;;
40955;SDS011;26687;48.254;11.454;2024-01-16T08:25:33;3.70;;;2.90;;
40955;SDS011;26687;48.254;11.454;2024-01-16T08:28:34;4.07;;;2.88;;
40955;SDS011;26687;48.254;11.454;2024-01-16T08:31:34;4.22;;;3.30;;
40955;SDS011;26687;48.254;11.454;2024-01-16T08:34:34;5.40;;;3.45;;
40955;SDS011;26687;48.254;11.454;2024-01-16T08:37:34;6.60;;;3.90;;
40955;SDS011;26687;48.254;11.454;2024-01-16T08:40:34;5.67;;;4.40;;
40955;SDS011;26687;48.254;11.454;2024-01-16T08:43:34;5.45;;;3.50;;
40955;SDS011;26687;48.254;11.454;2024-01-16T08:46:35;3.95;;;2.92;;
40955;SDS011;26687;48.254;11.454;2024-01-16T08:49:35;4.38;;;2.95;;
40955;SDS011;26687;48.254;11.454;2024-01-16T08:52:35;4.18;;;2.80;;
40955;SDS011;26687;48.254;11.454;2024-01-16T08:55:35;3.17;;;2.30;;
40955;SDS011;26687;48.254;11.454;2024-01-16T08:58:35;3.80;;;2.83;;
40955;SDS011;26687;48.254;11.454;2024-01-16T09:01:37;4.93;;;3.00;;
40955;SDS011;26687;48.254;11.454;2024-01-16T09:04:37;5.13;;;2.67;;
40955;SDS011;26687;48.254;11.454;2024-01-16T09:07:38;4.65;;;2.88;;
40955;SDS011;26687;48.254;11.454;2024-01-16T09:10:38;3.88;;;2.75;;
40955;SDS011;26687;48.254;11.454;2024-01-16T09:13:38;4.10;;;2.92;;
40955;SDS011;26687;48.254;11.454;2024-01-16T09:16:39;2.97;;;2.60;;
40955;SDS011;26687;48.254;11.454;2024-01-16T09:19:40;5.15;;;2.70;;
40955;SDS011;26687;48.254;11.454;2024-01-16T09:22:41;4.38;;;2.78;;
40955;SDS011;26687;48.254;11.454;2024-01-16T09:25:41;5.78;;;2.80;;
40955;SDS011;26687;48.254;11.454;2024-01-16T09:28:41;4.97;;;2.73;;
40955;SDS011;26687;48.254;11.454;2024-01-16T09:31:41;4.95;;;2.70;;
40955;SDS011;26687;48.254;11.454;2024-01-16T09:34:42;3.53;;;2.47;;
40955;SDS011;26687;48.254;11.454;2024-01-16T09:37:42;5.68;;;2.90;;
40955;SDS011;26687;48.254;11.454;2024-01-16T09:40:42;4.53;;;2.70;;
40955;SDS011;26687;48.254;11.454;2024-01-16T09:43:42;5.43;;;2.50;;
40955;SDS011;26687;48.254;11.454;2024-01-16T09:46:43;3.85;;;2.80;;
40955;SDS011;26687;48.254;11.454;2024-01-16T09:49:46;4.60;;;2.63;;
40955;SDS011;26687;48.254;11.454;2024-01-16T09:52:46;5.15;;;3.10;;
40955;SDS011;26687;48.254;11.454;2024-01-16T09:55:48;5.00;;;2.97;;
40955;SDS011;26687;48.254;11.454;2024-01-16T09:58:50;4.35;;;2.80;;
40955;SDS011;26687;48.254;11.454;2024-01-16T10:01:51;3.38;;;2.95;;
40955;SDS011;26687;48.254;11.454;2024-01-16T10:04:52;5.43;;;3.20;;
40955;SDS011;26687;48.254;11.454;2024-01-16T10:07:52;3.65;;;2.65;;
40955;SDS011;26687;48.254;11.454;2024-01-16T10:10:52;4.20;;;2.85;;
40955;SDS011;26687;48.254;11.454;2024-01-16T10:13:52;3.30;;;2.53;;
40955;SDS011;26687;48.254;11.454;2024-01-16T10:19:57;4.18;;;2.88;;
40955;SDS011;26687;48.254;11.454;2024-01-16T10:22:59;3.77;;;2.63;;
40955;SDS011;26687;48.254;11.454;2024-01-16T10:26:09;3.80;;;2.65;;
40955;SDS011;26687;48.254;11.454;2024-01-16T10:29:10;4.03;;;2.45;;
40955;SDS011;26687;48.254;11.454;2024-01-16T10:32:10;4.50;;;2.38;;
40955;SDS011;26687;48.254;11.454;2024-01-16T10:35:11;2.50;;;2.30;;
40955;SDS011;26687;48.254;11.454;2024-01-16T10:38:15;4.80;;;2.65;;
40955;SDS011;26687;48.254;11.454;2024-01-16T10:41:19;3.63;;;2.70;;
40955;SDS011;26687;48.254;11.454;2024-01-16T10:44:25;3.42;;;2.50;;
40955;SDS011;26687;48.254;11.454;2024-01-16T10:47:25;3.60;;;2.53;;
40955;SDS011;26687;48.254;11.454;2024-01-16T10:50:25;3.70;;;2.75;;
40955;SDS011;26687;48.254;11.454;2024-01-16T10:53:25;4.75;;;3.13;;
40955;SDS011;26687;48.254;11.454;2024-01-16T10:56:29;3.10;;;2.80;;
40955;SDS011;26687;48.254;11.454;2024-01-16T10:59:34;2.80;;;2.40;;
40955;SDS011;26687;48.254;11.454;2024-01-16T11:02:43;3.58;;;2.30;;
40955;SDS011;26687;48.254;11.454;2024-01-16T11:05:43;3.50;;;2.67;;
40955;SDS011;26687;48.254;11.454;2024-01-16T11:08:47;3.10;;;2.10;;
40955;SDS011;26687;48.254;11.454;2024-01-16T11:11:48;3.75;;;2.92;;
40955;SDS011;26687;48.254;11.454;2024-01-16T11:14:49;3.55;;;2.15;;
40955;SDS011;26687;48.254;11.454;2024-01-16T11:17:51;3.78;;;2.33;;
40955;SDS011;26687;48.254;11.454;2024-01-16T11:20:53;4.53;;;2.38;;
40955;SDS011;26687;48.254;11.454;2024-01-16T11:23:54;2.78;;;2.22;;
40955;SDS011;26687;48.254;11.454;2024-01-16T11:26:54;2.53;;;1.88;;
40955;SDS011;26687;48.254;11.454;2024-01-16T11:29:55;2.75;;;2.22;;
40955;SDS011;26687;48.254;11.454;2024-01-16T11:32:55;3.53;;;1.98;;
40955;SDS011;26687;48.254;11.454;2024-01-16T11:35:55;3.08;;;2.50;;
40955;SDS011;26687;48.254;11.454;2024-01-16T11:38:56;3.87;;;2.47;;
40955;SDS011;26687;48.254;11.454;2024-01-16T11:41:57;4.05;;;2.95;;
40955;SDS011;26687;48.254;11.454;2024-01-16T11:44:57;3.13;;;2.15;;
40955;SDS011;26687;48.254;11.454;2024-01-16T11:48:13;3.30;;;2.53;;
40955;SDS011;26687;48.254;11.454;2024-01-16T11:51:23;3.40;;;2.35;;
40955;SDS011;26687;48.254;11.454;2024-01-16T11:54:23;4.03;;;3.00;;
40955;SDS011;26687;48.254;11.454;2024-01-16T12:03:27;4.03;;;2.35;;
40955;SDS011;26687;48.254;11.454;2024-01-16T12:06:27;5.82;;;2.70;;
40955;SDS011;26687;48.254;11.454;2024-01-16T12:09:28;3.22;;;2.92;;
40955;SDS011;26687;48.254;11.454;2024-01-16T12:12:28;4.75;;;3.45;;
40955;SDS011;26687;48.254;11.454;2024-01-16T12:15:28;5.05;;;3.72;;
40955;SDS011;26687;48.254;11.454;2024-01-16T12:18:28;4.35;;;3.17;;
40955;SDS011;26687;48.254;11.454;2024-01-16T12:21:29;4.77;;;2.70;;
40955;SDS011;26687;48.254;11.454;2024-01-16T12:24:29;2.50;;;2.10;;
40955;SDS011;26687;48.254;11.454;2024-01-16T12:27:29;3.67;;;2.67;;
40955;SDS011;26687;48.254;11.454;2024-01-16T12:30:30;4.40;;;2.70;;
40955;SDS011;26687;48.254;11.454;2024-01-16T12:33:31;3.70;;;2.75;;
40955;SDS011;26687;48.254;11.454;2024-01-16T12:36:31;3.47;;;2.60;;
40955;SDS011;26687;48.254;11.454;2024-01-16T12:39:32;4.57;;;3.03;;
40955;SDS011;26687;48.254;11.454;2024-01-16T12:42:32;3.15;;;2.50;;
40955;SDS011;26687;48.254;11.454;2024-01-16T12:45:33;3.75;;;2.65;;
40955;SDS011;26687;48.254;11.454;2024-01-16T12:48:33;3.80;;;2.53;;
40955;SDS011;26687;48.254;11.454;2024-01-16T12:51:34;3.15;;;2.10;;
40955;SDS011;26687;48.254;11.454;2024-01-16T12:54:34;4.10;;;2.15;;
40955;SDS011;26687;48.254;11.454;2024-01-16T12:57:34;3.25;;;1.98;;
40955;SDS011;26687;48.254;11.454;2024-01-16T13:00:35;3.80;;;2.33;;
40955;SDS011;26687;48.254;11.454;2024-01-16T13:03:36;3.72;;;2.28;;
40955;SDS011;26687;48.254;11.454;2024-01-16T13:06:36;2.85;;;2.15;;
40955;SDS011;26687;48.254;11.454;2024-01-16T13:09:36;2.90;;;2.13;;
40955;SDS011;26687;48.254;11.454;2024-01-16T13:12:37;4.40;;;2.53;;
40955;SDS011;26687;48.254;11.454;2024-01-16T13:15:37;4.30;;;2.30;;
40955;SDS011;26687;48.254;11.454;2024-01-16T13:18:37;3.70;;;2.40;;
40955;SDS011;26687;48.254;11.454;2024-01-16T13:21:38;3.93;;;2.40;;
40955;SDS011;26687;48.254;11.454;2024-01-16T13:24:38;3.60;;;2.67;;
40955;SDS011;26687;48.254;11.454;2024-01-16T13:27:38;4.43;;;2.73;;
40955;SDS011;26687;48.254;11.454;2024-01-16T13:30:38;3.20;;;2.40;;
40955;SDS011;26687;48.254;11.454;2024-01-16T13:33:38;3.38;;;2.22;;
40955;SDS011;26687;48.254;11.454;2024-01-16T13:36:39;4.35;;;2.90;;
40955;SDS011;26687;48.254;11.454;2024-01-16T13:39:39;4.22;;;3.05;;
40955;SDS011;26687;48.254;11.454;2024-01-16T13:42:40;4.47;;;3.22;;
40955;SDS011;26687;48.254;11.454;2024-01-16T13:45:40;5.50;;;3.20;;
40955;SDS011;26687;48.254;11.454;2024-01-16T13:48:41;4.13;;;2.78;;
40955;SDS011;26687;48.254;11.454;2024-01-16T13:51:43;3.70;;;2.70;;
40955;SDS011;26687;48.254;11.454;2024-01-16T13:54:43;3.17;;;2.85;;
40955;SDS011;26687;48.254;11.454;2024-01-16T13:57:43;5.67;;;3.20;;
40955;SDS011;26687;48.254;11.454;2024-01-16T14:00:44;3.93;;;2.60;;
40955;SDS011;26687;48.254;11.454;2024-01-16T14:03:44;5.20;;;2.53;;
40955;SDS011;26687;48.254;11.454;2024-01-16T14:06:46;6.88;;;2.60;;
40955;SDS011;26687;48.254;11.454;2024-01-16T14:09:46;4.22;;;2.50;;
40955;SDS011;26687;48.254;11.454;2024-01-16T14:12:48;3.75;;;2.53;;
40955;SDS011;26687;48.254;11.454;2024-01-16T14:15:50;4.70;;;2.40;;
40955;SDS011;26687;48.254;11.454;2024-01-16T14:18:50;4.43;;;2.35;;
40955;SDS011;26687;48.254;11.454;2024-01-16T14:21:51;3.58;;;2.30;;
40955;SDS011;26687;48.254;11.454;2024-01-16T14:24:51;5.90;;;2.25;;
40955;SDS011;26687;48.254;11.454;2024-01-16T14:27:58;3.28;;;2.38;;
40955;SDS011;26687;48.254;11.454;2024-01-16T14:30:59;2.75;;;2.15;;
40955;SDS011;26687;48.254;11.454;2024-01-16T14:34:00;3.92;;;1.98;;
40955;SDS011;26687;48.254;11.454;2024-01-16T14:37:00;3.60;;;1.92;;
40955;SDS011;26687;48.254;11.454;2024-01-16T14:40:00;3.22;;;2.38;;
40955;SDS011;26687;48.254;11.454;2024-01-16T14:43:01;3.88;;;2.20;;
40955;SDS011;26687;48.254;11.454;2024-01-16T14:46:04;2.35;;;1.58;;
40955;SDS011;26687;48.254;11.454;2024-01-16T14:49:04;2.78;;;1.83;;
40955;SDS011;26687;48.254;11.454;2024-01-16T14:52:04;3.10;;;2.20;;
40955;SDS011;26687;48.254;11.454;2024-01-16T14:55:06;3.55;;;2.30;;
40955;SDS011;26687;48.254;11.454;2024-01-16T14:58:09;3.33;;;2.05;;
40955;SDS011;26687;48.254;11.454;2024-01-16T15:01:09;4.20;;;1.80;;
40955;SDS011;26687;48.254;11.454;2024-01-16T15:04:10;3.53;;;2.28;;
40955;SDS011;26687;48.254;11.454;2024-01-16T15:07:11;2.53;;;1.60;;
40955;SDS011;26687;48.254;11.454;2024-01-16T15:10:12;4.43;;;1.70;;
40955;SDS011;26687;48.254;11.454;2024-01-16T15:13:12;2.33;;;1.70;;
40955;SDS011;26687;48.254;11.454;2024-01-16T15:16:12;3.00;;;1.50;;
40955;SDS011;26687;48.254;11.454;2024-01-16T15:19:15;2.90;;;2.10;;
40955;SDS011;26687;48.254;11.454;2024-01-16T15:22:16;3.33;;;2.15;;
40955;SDS011;26687;48.254;11.454;2024-01-16T15:25:16;4.15;;;2.20;;
40955;SDS011;26687;48.254;11.454;2024-01-16T15:28:20;3.10;;;2.15;;
40955;SDS011;26687;48.254;11.454;2024-01-16T15:31:20;5.03;;;2.72;;
40955;SDS011;26687;48.254;11.454;2024-01-16T15:34:21;3.78;;;3.05;;
40955;SDS011;26687;48.254;11.454;2024-01-16T15:37:21;4.45;;;3.15;;
40955;SDS011;26687;48.254;11.454;2024-01-16T15:40:22;3.70;;;2.65;;
40955;SDS011;26687;48.254;11.454;2024-01-16T15:43:23;3.47;;;2.20;;
40955;SDS011;26687;48.254;11.454;2024-01-16T15:46:23;3.30;;;2.40;;
40955;SDS011;26687;48.254;11.454;2024-01-16T15:49:23;4.85;;;2.70;;
40955;SDS011;26687;48.254;11.454;2024-01-16T15:52:24;4.93;;;2.60;;
40955;SDS011;26687;48.254;11.454;2024-01-16T15:55:24;4.57;;;3.28;;
40955;SDS011;26687;48.254;11.454;2024-01-16T15:58:24;5.03;;;3.38;;
40955;SDS011;26687;48.254;11.454;2024-01-16T16:01:24;5.83;;;3.30;;
40955;SDS011;26687;48.254;11.454;2024-01-16T16:04:24;6.28;;;3.38;;
40955;SDS011;26687;48.254;11.454;2024-01-16T16:07:24;4.93;;;2.28;;
40955;SDS011;26687;48.254;11.454;2024-01-16T16:10:25;3.70;;;2.75;;
40955;SDS011;26687;48.254;11.454;2024-01-16T16:13:26;6.85;;;4.18;;
40955;SDS011;26687;48.254;11.454;2024-01-16T16:16:31;6.00;;;4.18;;
40955;SDS011;26687;48.254;11.454;2024-01-16T16:19:31;7.63;;;5.03;;
40955;SDS011;26687;48.254;11.454;2024-01-16T16:22:31;6.87;;;3.70;;
40955;SDS011;26687;48.254;11.454;2024-01-16T16:25:31;4.73;;;2.80;;
40955;SDS011;26687;48.254;11.454;2024-01-16T16:28:32;4.75;;;2.85;;
40955;SDS011;26687;48.254;11.454;2024-01-16T16:31:32;3.50;;;2.80;;
40955;SDS011;26687;48.254;11.454;2024-01-16T16:34:32;4.45;;;2.70;;
40955;SDS011;26687;48.254;11.454;2024-01-16T16:37:33;5.87;;;2.87;;
40955;SDS011;26687;48.254;11.454;2024-01-16T16:40:33;4.20;;;3.00;;
40955;SDS011;26687;48.254;11.454;2024-01-16T16:43:35;4.97;;;3.83;;
40955;SDS011;26687;48.254;11.454;2024-01-16T16:46:36;7.68;;;4.00;;
40955;SDS011;26687;48.254;11.454;2024-01-16T16:49:36;5.97;;;2.92;;
40955;SDS011;26687;48.254;11.454;2024-01-16T16:52:36;4.28;;;2.70;;
40955;SDS011;26687;48.254;11.454;2024-01-16T16:55:36;4.75;;;2.80;;
40955;SDS011;26687;48.254;11.454;2024-01-16T16:58:40;6.35;;;2.90;;
40955;SDS011;26687;48.254;11.454;2024-01-16T17:01:41;4.97;;;2.85;;
40955;SDS011;26687;48.254;11.454;2024-01-16T17:04:42;6.30;;;2.53;;
40955;SDS011;26687;48.254;11.454;2024-01-16T17:07:42;3.55;;;2.30;;
40955;SDS011;26687;48.254;11.454;2024-01-16T17:10:42;3.63;;;2.83;;
40955;SDS011;26687;48.254;11.454;2024-01-16T17:13:43;3.63;;;2.20;;
40955;SDS011;26687;48.254;11.454;2024-01-16T17:16:48;5.25;;;2.65;;
40955;SDS011;26687;48.254;11.454;2024-01-16T17:19:48;3.70;;;2.75;;
40955;SDS011;26687;48.254;11.454;2024-01-16T17:22:48;4.50;;;2.50;;
40955;SDS011;26687;48.254;11.454;2024-01-16T17:25:48;5.00;;;2.85;;
40955;SDS011;26687;48.254;11.454;2024-01-16T17:28:49;2.65;;;2.20;;
40955;SDS011;26687;48.254;11.454;2024-01-16T17:31:49;5.75;;;2.95;;
40955;SDS011;26687;48.254;11.454;2024-01-16T17:34:49;5.97;;;3.07;;
40955;SDS011;26687;48.254;11.454;2024-01-16T17:37:50;4.13;;;2.88;;
40955;SDS011;26687;48.254;11.454;2024-01-16T17:40:50;6.30;;;2.83;;
40955;SDS011;26687;48.254;11.454;2024-01-16T17:43:50;4.65;;;3.00;;
40955;SDS011;26687;48.254;11.454;2024-01-16T17:46:50;4.50;;;3.63;;
40955;SDS011;26687;48.254;11.454;2024-01-16T17:49:50;6.13;;;3.70;;
40955;SDS011;26687;48.254;11.454;2024-01-16T17:52:51;4.65;;;3.13;;
40955;SDS011;26687;48.254;11.454;2024-01-16T17:55:52;6.22;;;3.35;;
40955;SDS011;26687;48.254;11.454;2024-01-16T17:58:53;5.55;;;3.63;;